Jaromer, Czech Republic
Current Conditions -  °F | °C
As of 5:00 AM on Tuesday 21 Oct 2014 (Local Time) from LKPD Reporting Station
Clear Clear  
Wind Chill: 48°   Ceiling: Unl
Heat Index: 48°   Visibility: 6mi
Dew Point: 48°   Wind: 3mph
Humidity: 100%   Direction: 240°WSW
Pressure: 29.91"   Gusts: NA
Location:  50.35°N, 15.91°E
Report Text: LKPD 210300Z 24003KT CAVOK 09/09 Q1013
Loading
Personal Weather Stations






























Interactive Weather Map
Tropical Storm Tracking
New forecast layout! Learn more

10-Day Weather Forecast

Advertisements
Track Severe Weather on mobile